Time;durP1;ratioP1;P1;durP2;ratioP2;P2;SDS_P1;SDS_P2;PMS_P1;PMS_P2;Temp;Humidity;BMP_temperature;BMP_pressure;BME280_temperature;BME280_humidity;BME280_pressure;Samples;Min_cycle;Max_cycle;Signal;HPM_P1;HPM_P2
2021/10/10 00:02:23;;;;;;;;;52.00;41.50;;;;;15.38;62.79;101878.63;5057536;28;45910;-84
2021/10/10 00:04:48;;;;;;;;;49.25;38.50;;;;;15.43;63.04;101880.00;5055202;28;46576;-84
2021/10/10 00:07:14;;;;;;;;;49.00;39.00;;;;;15.26;62.88;101848.66;5055057;28;46190;-84
2021/10/10 00:09:40;;;;;;;;;50.75;41.75;;;;;15.33;63.31;101867.56;5054900;28;45799;-85
2021/10/10 00:12:06;;;;;;;;;46.00;37.75;;;;;15.44;63.19;101888.75;5055724;28;45686;-84
2021/10/10 00:17:54;;;;;;;;;52.50;41.50;;;;;15.45;63.36;101899.19;5055038;28;46281;-84
2021/10/10 00:20:19;;;;;;;;;48.25;38.50;;;;;15.30;63.36;101875.69;5053479;28;45669;-85
2021/10/10 00:22:45;;;;;;;;;49.75;41.00;;;;;15.41;63.47;101892.47;5053909;28;45724;-84
2021/10/10 00:25:11;;;;;;;;;49.75;38.50;;;;;15.10;63.40;101851.53;5054963;28;45728;-83
2021/10/10 00:27:37;;;;;;;;;48.50;39.50;;;;;15.37;63.62;101903.34;5055054;28;45633;-84
2021/10/10 00:33:26;;;;;;;;;51.75;40.00;;;;;15.30;63.45;101900.28;5054896;28;45592;-83
2021/10/10 00:35:52;;;;;;;;;48.00;38.25;;;;;15.09;63.98;101876.25;5054679;28;46505;-82
2021/10/10 00:38:18;;;;;;;;;42.25;37.50;;;;;15.06;64.00;101871.16;5054735;28;45673;-84
2021/10/10 00:40:43;;;;;;;;;41.25;37.00;;;;;15.09;63.92;101870.97;5054546;28;45596;-81
2021/10/10 00:43:09;;;;;;;;;49.00;39.50;;;;;15.23;63.86;101903.44;5054784;28;45470;-82
2021/10/10 00:45:35;;;;;;;;;44.00;37.25;;;;;14.99;64.17;101869.06;5052847;28;47593;-84
2021/10/10 00:48:01;;;;;;;;;48.75;39.50;;;;;15.09;64.31;101880.66;5052842;28;47120;-83
2021/10/10 00:50:27;;;;;;;;;51.50;38.50;;;;;15.17;64.30;101901.28;5054375;28;45618;-84
2021/10/10 00:52:53;;;;;;;;;44.00;37.25;;;;;15.00;63.81;101879.53;5054745;28;45703;-84
2021/10/10 00:55:21;;;;;;;;;50.25;40.50;;;;;15.02;64.14;101874.97;5054183;28;45722;-84
2021/10/10 00:57:49;;;;;;;;;48.25;40.25;;;;;14.81;64.24;101843.94;5051881;28;47407;-84
2021/10/10 01:03:37;;;;;;;;;46.75;37.00;;;;;14.98;64.34;101884.06;5054414;28;45661;-82
2021/10/10 01:06:02;;;;;;;;;52.75;41.25;;;;;14.97;64.56;101876.22;5054436;28;45654;-82
2021/10/10 01:08:28;;;;;;;;;47.50;37.25;;;;;14.71;64.43;101843.72;5054497;28;46417;-82
2021/10/10 01:10:53;;;;;;;;;51.75;40.00;;;;;14.75;64.47;101847.84;5053971;28;46155;-84
2021/10/10 01:13:19;;;;;;;;;46.00;38.25;;;;;14.92;64.67;101881.84;5054357;28;45560;-84
2021/10/10 01:15:47;;;;;;;;;50.75;38.50;;;;;14.97;64.80;101892.91;5052429;28;47309;-83
2021/10/10 01:18:22;;;;;;;;;48.00;38.00;;;;;14.96;64.66;101900.94;5052754;28;48128;-84
2021/10/10 01:20:48;;;;;;;;;49.50;38.50;;;;;14.95;64.55;101896.63;5052803;28;45642;-83
2021/10/10 01:23:14;;;;;;;;;44.25;37.25;;;;;14.94;64.51;101897.56;5054584;28;45768;-83
2021/10/10 01:25:40;;;;;;;;;51.50;39.50;;;;;14.81;64.55;101873.81;5054351;28;46434;-83
2021/10/10 01:28:05;;;;;;;;;53.00;41.50;;;;;14.73;64.95;101860.31;5058739;28;47285;-82
2021/10/10 01:33:53;;;;;;;;;50.00;39.00;;;;;14.66;64.85;101854.59;5059267;28;45543;-83
2021/10/10 01:36:19;;;;;;;;;44.25;36.00;;;;;14.64;64.80;101856.50;5059134;28;46584;-84
2021/10/10 01:38:44;;;;;;;;;52.00;39.25;;;;;14.54;65.14;101844.03;5059887;28;45736;-84
2021/10/10 01:41:11;;;;;;;;;48.00;39.25;;;;;14.69;64.91;101872.84;5058644;28;45490;-84
2021/10/10 01:43:38;;;;;;;;;49.75;39.25;;;;;14.77;65.09;101885.53;5054742;28;45866;-82
2021/10/10 01:46:03;;;;;;;;;45.00;37.25;;;;;14.46;65.03;101836.66;5055994;28;45507;-83
2021/10/10 01:48:29;;;;;;;;;49.75;39.00;;;;;14.62;65.08;101862.84;5054736;28;46114;-83
2021/10/10 01:50:54;;;;;;;;;47.50;38.25;;;;;14.38;65.07;101823.13;5054115;28;45479;-85
2021/10/10 01:53:20;;;;;;;;;48.50;37.75;;;;;14.66;65.08;101875.72;5055403;28;45491;-83
2021/10/10 01:55:45;;;;;;;;;46.25;39.00;;;;;14.35;65.13;101823.31;5053710;28;46597;-84
2021/10/10 01:58:12;;;;;;;;;50.50;39.00;;;;;14.52;65.54;101854.69;5054082;28;45646;-83
2021/10/10 02:03:59;;;;;;;;;42.25;36.25;;;;;14.48;65.23;101860.25;5054238;28;45674;-83
2021/10/10 02:06:25;;;;;;;;;47.50;38.50;;;;;14.45;65.54;101849.94;5052375;28;46667;-84
2021/10/10 02:08:51;;;;;;;;;48.25;38.00;;;;;14.51;65.64;101863.56;5071259;28;47490;-84
2021/10/10 02:11:17;;;;;;;;;49.75;39.50;;;;;14.18;65.44;101813.06;5056710;28;46088;-83
2021/10/10 02:13:43;;;;;;;;;49.25;38.00;;;;;14.39;65.35;101840.66;5058289;28;45506;-83
2021/10/10 02:19:31;;;;;;;;;52.75;42.25;;;;;14.45;65.86;101861.34;5057018;28;46160;-83
2021/10/10 02:21:57;;;;;;;;;48.50;39.75;;;;;14.34;65.69;101855.06;5055984;28;45605;-84
2021/10/10 02:24:22;;;;;;;;;50.75;39.75;;;;;14.32;65.43;101852.50;5058423;28;45506;-83
2021/10/10 02:26:48;;;;;;;;;49.00;38.50;;;;;14.10;65.76;101815.34;5055506;28;47544;-85
2021/10/10 02:29:13;;;;;;;;;47.00;38.50;;;;;14.30;65.77;101855.25;5057022;28;45620;-84
2021/10/10 02:31:42;;;;;;;;;48.75;39.00;;;;;14.27;66.07;101858.09;5057019;28;45661;-84
2021/10/10 02:34:09;;;;;;;;;48.75;38.75;;;;;14.34;65.83;101861.16;5056979;28;45747;-84
2021/10/10 02:36:35;;;;;;;;;50.75;41.00;;;;;14.19;65.85;101849.88;5057032;28;45497;-84
2021/10/10 02:39:00;;;;;;;;;50.50;38.50;;;;;14.00;65.72;101817.75;5057255;28;45642;-84
2021/10/10 02:41:25;;;;;;;;;51.25;38.75;;;;;14.16;66.10;101855.31;5056635;28;45783;-83
2021/10/10 02:43:51;;;;;;;;;48.75;39.00;;;;;13.85;66.15;101810.84;5057158;28;45597;-83
2021/10/10 02:49:38;;;;;;;;;45.75;39.00;;;;;14.11;66.02;101862.69;5057697;28;46258;-82
2021/10/10 02:52:04;;;;;;;;;47.25;39.25;;;;;14.14;66.26;101864.28;5055045;28;45702;-84
2021/10/10 02:54:29;;;;;;;;;50.00;40.25;;;;;14.13;66.12;101874.00;5056803;28;45679;-83
2021/10/10 02:56:55;;;;;;;;;44.50;37.50;;;;;14.04;66.40;101857.91;5055170;28;47559;-84
2021/10/10 02:59:20;;;;;;;;;51.50;38.00;;;;;14.04;65.97;101860.53;5056601;28;46367;-85
2021/10/10 03:01:45;;;;;;;;;51.50;41.00;;;;;13.84;66.24;101824.97;5056381;28;46057;-85
2021/10/10 03:04:11;;;;;;;;;48.50;39.50;;;;;13.97;66.00;101846.94;5055241;28;45505;-84
2021/10/10 03:06:36;;;;;;;;;50.00;39.50;;;;;13.74;66.19;101816.81;5056742;28;45596;-84
2021/10/10 03:09:02;;;;;;;;;49.25;39.00;;;;;14.03;66.12;101872.91;5056371;28;45594;-84
2021/10/10 03:11:27;;;;;;;;;45.75;38.75;;;;;14.01;66.37;101864.25;5054928;28;45732;-84
2021/10/10 03:13:53;;;;;;;;;49.75;38.50;;;;;13.79;66.59;101838.44;5056364;28;45629;-84
2021/10/10 03:19:40;;;;;;;;;48.50;38.25;;;;;13.82;66.76;101853.19;5055112;28;46228;-83
2021/10/10 03:22:05;;;;;;;;;49.75;40.50;;;;;13.92;66.55;101879.81;5056653;28;46118;-85
2021/10/10 03:24:31;;;;;;;;;47.75;36.75;;;;;13.47;66.55;101801.97;5056483;28;45756;-83
2021/10/10 03:26:56;;;;;;;;;51.50;39.25;;;;;13.70;66.81;101846.09;5056662;28;46539;-83
2021/10/10 03:29:22;;;;;;;;;49.25;40.00;;;;;13.76;66.98;101854.47;5054724;28;46792;-85
2021/10/10 03:35:09;;;;;;;;;50.50;40.25;;;;;13.73;67.03;101861.69;5056187;28;45535;-84
2021/10/10 03:37:35;;;;;;;;;50.50;38.75;;;;;13.70;66.59;101856.63;5056134;28;47745;-84
2021/10/10 03:40:07;;;;;;;;;48.00;39.00;;;;;13.50;66.98;101821.03;5056220;28;45631;-84
2021/10/10 03:42:32;;;;;;;;;43.75;33.25;;;;;13.42;67.04;101818.91;5056229;28;45668;-84
2021/10/10 03:44:57;;;;;;;;;51.75;37.00;;;;;13.33;67.07;101802.84;5056073;28;45801;-84
2021/10/10 03:47:23;;;;;;;;;51.00;40.25;;;;;13.62;67.03;101848.38;5056273;28;45832;-84
2021/10/10 03:49:48;;;;;;;;;48.50;37.50;;;;;13.72;66.64;101862.63;5054809;28;47053;-85
2021/10/10 03:52:13;;;;;;;;;43.25;37.50;;;;;13.58;66.82;101839.81;5055851;28;45605;-83
2021/10/10 03:57:24;;;;;;;;;47.00;38.75;;;;;13.52;66.70;101831.47;5056209;28;45554;-84
2021/10/10 04:00:03;;;;;;;;;42.00;36.75;;;;;13.42;66.81;101823.31;5055454;28;46221;-85
2021/10/10 04:02:28;;;;;;;;;55.50;43.50;;;;;13.62;66.88;101864.16;5054733;28;45901;-85
2021/10/10 04:04:54;;;;;;;;;50.00;40.25;;;;;13.56;67.00;101839.06;5056592;28;45581;-85
2021/10/10 04:07:21;;;;;;;;;51.75;40.25;;;;;13.40;67.16;101820.78;5059820;28;46350;-85
2021/10/10 04:09:47;;;;;;;;;48.75;39.75;;;;;13.60;67.02;101858.16;5061464;28;46269;-86
2021/10/10 04:12:12;;;;;;;;;51.50;39.75;;;;;13.40;67.14;101818.13;5060941;28;45862;-86
2021/10/10 04:14:38;;;;;;;;;46.75;38.50;;;;;13.50;67.20;101851.78;5061418;28;45737;-85
2021/10/10 04:20:25;;;;;;;;;51.50;41.25;;;;;13.23;67.17;101806.97;5063836;28;45566;-86
2021/10/10 04:22:51;;;;;;;;;53.50;42.50;;;;;13.30;67.17;101830.19;5058936;28;45750;-86
2021/10/10 04:25:17;;;;;;;;;51.25;39.75;;;;;13.56;67.44;101867.19;5072157;28;45628;-84
2021/10/10 04:27:42;;;;;;;;;51.00;41.75;;;;;13.27;67.51;101830.41;5054274;28;46750;-84
2021/10/10 04:30:12;;;;;;;;;52.25;42.75;;;;;13.50;67.19;101862.31;5053647;28;47916;-84
2021/10/10 04:32:38;;;;;;;;;53.00;41.00;;;;;13.36;67.22;101850.88;5054204;28;45902;-84
2021/10/10 04:35:03;;;;;;;;;58.50;44.00;;;;;13.27;67.50;101850.59;5053912;28;45621;-85
2021/10/10 04:37:29;;;;;;;;;53.25;41.25;;;;;13.30;67.60;101863.56;5053518;28;48922;-84
2021/10/10 04:39:54;;;;;;;;;54.75;41.50;;;;;13.10;67.57;101833.19;5053480;28;46929;-85
2021/10/10 04:42:19;;;;;;;;;51.25;39.50;;;;;13.16;67.87;101853.06;5055324;28;45736;-85
2021/10/10 04:44:45;;;;;;;;;50.25;40.25;;;;;12.89;67.85;101819.59;5053659;28;45632;-84
2021/10/10 04:50:32;;;;;;;;;51.25;43.25;;;;;13.17;68.11;101878.44;5054745;28;45845;-85
2021/10/10 04:52:57;;;;;;;;;50.00;40.25;;;;;12.97;67.92;101858.56;5053792;28;45488;-85
2021/10/10 04:55:23;;;;;;;;;50.50;39.75;;;;;12.91;67.75;101869.44;5055297;28;45608;-86
2021/10/10 04:57:48;;;;;;;;;50.50;40.00;;;;;12.89;68.30;101866.94;5053458;28;47632;-85
2021/10/10 05:00:14;;;;;;;;;51.25;42.25;;;;;12.52;68.15;101805.16;5055055;28;46478;-86
2021/10/10 05:02:39;;;;;;;;;55.00;43.75;;;;;12.83;68.32;101862.03;5053825;28;46219;-85
2021/10/10 05:05:05;;;;;;;;;50.00;41.00;;;;;12.95;67.95;101884.13;5055551;28;45601;-86
2021/10/10 05:07:30;;;;;;;;;51.75;41.00;;;;;12.95;68.23;101902.53;5055600;28;47850;-86
2021/10/10 05:09:56;;;;;;;;;51.00;41.50;;;;;12.47;68.28;101815.13;5053695;28;45964;-87
2021/10/10 05:12:22;;;;;;;;;40.50;34.50;;;;;12.48;67.98;101814.19;5055322;28;45617;-86
2021/10/10 05:14:47;;;;;;;;;42.75;37.25;;;;;12.60;68.14;101844.16;5055473;28;45678;-84
2021/10/10 05:20:35;;;;;;;;;51.00;41.25;;;;;12.87;68.78;101881.09;5054081;28;45864;-86
2021/10/10 05:23:00;;;;;;;;;53.00;41.50;;;;;12.59;68.27;101832.78;5052976;28;45682;-84
2021/10/10 05:25:26;;;;;;;;;49.50;38.75;;;;;12.63;68.54;101844.81;5053019;28;45601;-84
2021/10/10 05:27:51;;;;;;;;;51.00;41.25;;;;;12.93;68.32;101880.75;5054479;28;45658;-84
2021/10/10 05:30:18;;;;;;;;;47.25;39.75;;;;;12.68;68.13;101849.81;5054516;28;46149;-85
2021/10/10 05:36:05;;;;;;;;;51.25;40.00;;;;;12.67;68.19;101845.50;5054469;28;45679;-85
2021/10/10 05:38:30;;;;;;;;;52.00;39.25;;;;;12.84;68.73;101878.66;5054345;28;46595;-85
2021/10/10 05:40:56;;;;;;;;;49.75;40.25;;;;;12.74;68.26;101861.75;5052930;28;46146;-84
2021/10/10 05:43:21;;;;;;;;;55.50;43.75;;;;;12.78;68.48;101872.00;5055012;28;45604;-84
2021/10/10 05:45:46;;;;;;;;;49.50;39.75;;;;;12.71;68.44;101851.41;5058536;28;45491;-84
2021/10/10 05:48:12;;;;;;;;;45.50;36.75;;;;;12.98;68.47;101891.81;5056872;28;46691;-84
2021/10/10 05:50:37;;;;;;;;;49.25;38.50;;;;;12.71;68.49;101856.66;5056618;28;47093;-84
2021/10/10 05:53:07;;;;;;;;;50.00;39.75;;;;;12.76;68.40;101862.50;5056898;28;45703;-84
2021/10/10 05:55:36;;;;;;;;;53.00;42.00;;;;;12.88;68.13;101888.91;5057158;28;45899;-85
2021/10/10 05:58:03;;;;;;;;;52.50;43.25;;;;;12.60;68.59;101845.00;5056995;28;47612;-85
2021/10/10 06:00:29;;;;;;;;;53.00;40.75;;;;;12.68;68.73;101865.59;5056093;28;47110;-84
2021/10/10 06:06:16;;;;;;;;;47.75;39.50;;;;;12.95;68.49;101908.66;5057242;28;45780;-85
2021/10/10 06:08:41;;;;;;;;;49.25;39.50;;;;;12.95;68.64;101911.28;5055705;28;48285;-85
2021/10/10 06:11:09;;;;;;;;;46.75;37.75;;;;;12.77;68.63;101878.19;5056860;28;46324;-85
2021/10/10 06:13:36;;;;;;;;;49.25;40.00;;;;;12.75;68.87;101884.47;5057174;28;45530;-86
2021/10/10 06:16:01;;;;;;;;;44.50;37.25;;;;;12.51;68.63;101845.56;5057798;28;45656;-86
2021/10/10 06:18:27;;;;;;;;;47.50;39.00;;;;;12.85;68.94;101899.59;5057561;28;45540;-85
2021/10/10 06:20:52;;;;;;;;;47.00;36.75;;;;;12.66;68.44;101872.72;5057444;28;46383;-84
2021/10/10 06:23:18;;;;;;;;;46.50;38.50;;;;;12.57;68.44;101853.09;5055879;28;45610;-85
2021/10/10 06:25:45;;;;;;;;;48.25;38.25;;;;;12.80;68.46;101899.03;5057618;28;45529;-85
2021/10/10 06:28:10;;;;;;;;;46.00;39.50;;;;;12.84;68.66;101899.72;5057426;28;46492;-85
2021/10/10 06:30:36;;;;;;;;;44.75;37.25;;;;;12.78;68.79;101892.19;5055687;28;46963;-85
2021/10/10 06:36:22;;;;;;;;;48.25;40.25;;;;;12.89;68.68;101910.81;5057362;28;45643;-84
2021/10/10 06:38:48;;;;;;;;;50.00;40.75;;;;;12.95;68.93;101931.47;5073175;28;46364;-85
2021/10/10 06:41:15;;;;;;;;;47.50;40.00;;;;;12.70;69.01;101891.78;5057288;28;46531;-84
2021/10/10 06:43:40;;;;;;;;;47.50;36.75;;;;;12.81;68.88;101908.63;5073917;28;45903;-85
2021/10/10 06:46:06;;;;;;;;;50.50;40.50;;;;;12.96;68.63;101939.25;5063296;28;45534;-83
2021/10/10 06:48:31;;;;;;;;;46.00;39.00;;;;;12.66;68.70;101893.75;5063001;28;47755;-85
2021/10/10 06:50:57;;;;;;;;;49.00;40.50;;;;;12.79;68.67;101904.41;5062686;28;46102;-86
2021/10/10 06:53:22;;;;;;;;;49.50;40.75;;;;;12.66;68.71;101883.25;5063065;28;45629;-85
2021/10/10 06:55:48;;;;;;;;;54.50;44.75;;;;;12.77;68.82;101903.63;5061676;28;45561;-85
2021/10/10 06:58:13;;;;;;;;;50.50;39.75;;;;;12.64;68.59;101892.97;5062086;28;47340;-85
2021/10/10 07:00:39;;;;;;;;;48.25;38.50;;;;;12.63;68.83;101896.56;5056513;28;48317;-83
2021/10/10 07:06:26;;;;;;;;;52.50;42.25;;;;;12.97;68.77;101940.09;5056876;28;45735;-85
2021/10/10 07:08:52;;;;;;;;;53.00;40.75;;;;;12.83;68.62;101914.63;5056672;28;45804;-85
2021/10/10 07:11:19;;;;;;;;;51.00;40.00;;;;;12.46;68.72;101858.13;5056270;28;46327;-85
2021/10/10 07:13:44;;;;;;;;;51.50;41.50;;;;;12.77;68.49;101903.63;5054852;28;45933;-85
2021/10/10 07:16:10;;;;;;;;;58.75;46.00;;;;;13.00;68.85;101942.56;5072119;28;45537;-85
2021/10/10 07:22:00;;;;;;;;;51.00;41.75;;;;;12.78;68.55;101902.69;5056181;28;45575;-85
2021/10/10 07:27:09;;;;;;;;;53.25;41.25;;;;;12.86;68.45;101918.84;5057432;28;45541;-86
2021/10/10 07:29:35;;;;;;;;;51.00;41.25;;;;;12.83;68.50;101922.53;5055553;28;46579;-85
2021/10/10 07:32:00;;;;;;;;;52.25;42.50;;;;;12.99;68.79;101943.50;5055827;28;45615;-77
2021/10/10 07:34:26;;;;;;;;;52.50;41.00;;;;;13.02;68.79;101953.84;5055445;28;45534;-75
2021/10/10 07:36:51;;;;;;;;;46.25;39.75;;;;;13.02;68.49;101946.78;5055168;28;45805;-77
2021/10/10 07:39:17;;;;;;;;;54.50;42.75;;;;;13.04;69.01;101946.72;5054816;28;46531;-78
2021/10/10 07:41:42;;;;;;;;;50.25;40.00;;;;;13.05;68.53;101953.66;5054918;28;46147;-78
2021/10/10 07:44:12;;;;;;;;;51.75;40.50;;;;;13.04;68.45;101941.44;5055513;28;45586;-78
2021/10/10 07:46:40;;;;;;;;;54.75;43.00;;;;;13.04;68.66;101947.56;5055373;28;45775;-78
2021/10/10 07:49:08;;;;;;;;;51.25;39.00;;;;;13.10;68.51;101951.59;5055584;28;46211;-78
2021/10/10 07:51:38;;;;;;;;;48.75;39.75;;;;;13.12;68.31;101941.03;5055217;28;47046;-78
2021/10/10 07:54:07;;;;;;;;;53.00;44.00;;;;;13.15;68.52;101951.34;5055064;28;45598;-79
2021/10/10 07:56:32;;;;;;;;;51.75;43.00;;;;;13.17;68.75;101958.19;5034372;28;45931;-78
2021/10/10 07:58:57;;;;;;;;;56.25;45.00;;;;;13.15;68.71;101959.25;5034705;28;46642;-77
2021/10/10 08:01:23;;;;;;;;;51.50;42.75;;;;;13.21;68.45;101961.50;5035415;28;46543;-77
2021/10/10 08:07:10;;;;;;;;;52.75;43.25;;;;;13.22;68.43;101963.22;5034535;28;45528;-76
2021/10/10 08:09:35;;;;;;;;;51.50;41.50;;;;;13.18;68.80;101959.91;5034685;28;47175;-78
2021/10/10 08:12:01;;;;;;;;;53.50;41.75;;;;;13.24;68.37;101969.22;5034594;28;46143;-79
2021/10/10 08:14:26;;;;;;;;;49.75;40.50;;;;;13.27;68.57;101974.31;5034762;28;45523;-78
2021/10/10 08:16:52;;;;;;;;;54.50;42.00;;;;;13.22;68.67;101956.16;5035027;28;45872;-77
2021/10/10 08:19:19;;;;;;;;;53.50;43.50;;;;;13.26;68.58;101957.66;5034945;28;45573;-75
2021/10/10 08:21:44;;;;;;;;;53.75;40.00;;;;;13.32;68.49;101959.94;5035020;28;46054;-77
2021/10/10 08:24:11;;;;;;;;;54.25;43.50;;;;;13.35;68.59;101970.25;5034345;28;45795;-78
2021/10/10 08:26:36;;;;;;;;;54.00;42.25;;;;;13.37;68.53;101972.81;5034928;28;45539;-77
2021/10/10 08:29:02;;;;;;;;;55.25;44.50;;;;;13.37;68.51;101984.19;5034376;28;46686;-78
2021/10/10 08:31:29;;;;;;;;;53.75;42.25;;;;;13.39;68.42;101978.81;5034437;28;46954;-76
2021/10/10 08:33:54;;;;;;;;;55.75;43.50;;;;;13.40;68.70;101983.13;5034803;28;45543;-76
2021/10/10 08:36:20;;;;;;;;;52.00;41.75;;;;;13.38;68.17;101971.88;5034696;28;45445;-76
2021/10/10 08:38:46;;;;;;;;;47.25;37.50;;;;;13.43;68.35;101986.44;5034401;28;46217;-77
2021/10/10 08:41:13;;;;;;;;;50.00;41.25;;;;;13.41;67.97;101980.41;5034578;28;45544;-76
2021/10/10 08:43:39;;;;;;;;;43.50;36.75;;;;;13.47;68.34;101968.66;5034420;28;45764;-78
2021/10/10 08:46:06;;;;;;;;;51.25;40.25;;;;;13.49;67.82;101969.44;5034675;28;45555;-77
2021/10/10 08:48:32;;;;;;;;;46.25;36.50;;;;;13.52;67.71;101961.34;5034336;28;46422;-77
2021/10/10 08:50:58;;;;;;;;;50.75;42.25;;;;;13.48;67.81;101937.94;5034477;28;46160;-77
2021/10/10 08:53:25;;;;;;;;;48.75;39.75;;;;;13.57;68.21;101940.81;5034246;28;45664;-77
2021/10/10 08:55:52;;;;;;;;;48.25;38.00;;;;;13.63;67.80;101947.50;5034368;28;45648;-77
2021/10/10 08:58:20;;;;;;;;;51.00;39.25;;;;;13.63;68.01;101950.97;5034252;28;47451;-78
2021/10/10 09:00:53;;;;;;;;;49.50;39.00;;;;;13.71;67.76;101966.31;5032674;28;47207;-77
2021/10/10 09:03:19;;;;;;;;;50.50;42.25;;;;;13.75;67.61;101981.84;5033875;28;45840;-78
2021/10/10 09:05:49;;;;;;;;;47.75;39.50;;;;;13.79;67.50;101999.13;5034219;28;45576;-77
2021/10/10 09:08:14;;;;;;;;;43.25;36.50;;;;;13.81;67.33;101999.88;5033999;28;46329;-77
2021/10/10 09:10:40;;;;;;;;;47.25;39.00;;;;;13.83;67.70;101990.09;5033701;28;46086;-76
2021/10/10 09:13:16;;;;;;;;;49.50;40.75;;;;;13.88;67.75;101995.06;5032991;28;45722;-78
2021/10/10 09:15:53;;;;;;;;;48.25;39.25;;;;;13.91;67.15;101992.25;5034385;28;45669;-77
2021/10/10 09:21:41;;;;;;;;;46.75;37.50;;;;;14.00;66.93;101993.44;5033618;28;45784;-78
2021/10/10 09:24:06;;;;;;;;;49.00;38.25;;;;;14.02;67.19;101989.78;5033811;28;45674;-77
2021/10/10 09:26:41;;;;;;;;;47.50;37.50;;;;;14.05;66.91;101988.72;5034451;28;45612;-78
2021/10/10 09:29:07;;;;;;;;;45.75;38.75;;;;;14.08;67.08;102004.38;5034891;28;46572;-78
2021/10/10 09:31:33;;;;;;;;;48.25;38.75;;;;;14.06;66.64;102003.59;5034674;28;47274;-78
2021/10/10 09:37:38;;;;;;;;;48.75;40.00;;;;;14.18;66.54;102010.75;5035120;28;45555;-77
2021/10/10 09:42:43;;;;;;;;;49.00;39.00;;;;;14.19;66.31;101997.47;5033120;28;46289;-76
2021/10/10 09:45:24;;;;;;;;;45.75;38.75;;;;;14.25;66.26;102004.16;5034024;28;45823;-77
2021/10/10 09:47:52;;;;;;;;;43.50;36.75;;;;;14.26;66.23;101993.47;5033833;28;45534;-77
2021/10/10 09:50:19;;;;;;;;;52.25;40.00;;;;;14.28;65.99;101998.66;5033599;28;47422;-77
2021/10/10 09:52:44;;;;;;;;;48.25;37.50;;;;;14.35;66.00;102001.75;5033441;28;46469;-75
2021/10/10 09:55:11;;;;;;;;;46.25;38.00;;;;;14.38;66.13;102005.06;5033978;28;45602;-75
2021/10/10 09:57:48;;;;;;;;;42.75;37.00;;;;;14.36;66.04;101983.19;5033964;28;45665;-76
2021/10/10 10:00:22;;;;;;;;;46.75;39.25;;;;;14.42;65.74;101996.00;5033399;28;46394;-77
2021/10/10 10:02:49;;;;;;;;;49.00;39.50;;;;;14.48;65.74;101994.75;5033761;28;45995;-79
2021/10/10 10:05:30;;;;;;;;;49.00;39.75;;;;;14.50;65.60;101985.81;5033939;28;45535;-77
2021/10/10 10:07:56;;;;;;;;;46.75;36.75;;;;;14.60;65.49;101996.59;5033542;28;45842;-76
2021/10/10 10:10:25;;;;;;;;;49.25;39.75;;;;;14.55;65.73;101980.22;5033001;28;46434;-76
2021/10/10 10:12:51;;;;;;;;;49.75;40.50;;;;;14.68;65.45;101999.59;5032918;28;47202;-76
2021/10/10 10:15:19;;;;;;;;;46.25;37.25;;;;;14.73;65.46;101992.22;5032909;28;45527;-77
2021/10/10 10:17:46;;;;;;;;;47.50;37.00;;;;;14.78;65.50;101997.19;5033462;28;45627;-77
2021/10/10 10:23:34;;;;;;;;;46.75;38.25;;;;;14.75;65.10;101978.91;5033047;28;46083;-75
2021/10/10 10:26:01;;;;;;;;;45.50;38.25;;;;;14.86;65.05;101989.59;5033373;28;45852;-75
2021/10/10 10:28:27;;;;;;;;;45.00;35.25;;;;;14.98;64.99;101996.69;5033413;28;45519;-77
2021/10/10 10:30:54;;;;;;;;;39.25;34.25;;;;;14.98;65.07;101988.78;5036631;28;45835;-77
2021/10/10 10:33:19;;;;;;;;;39.25;33.75;;;;;15.07;65.05;102003.97;5036828;28;46192;-76
2021/10/10 10:35:46;;;;;;;;;46.25;36.25;;;;;15.11;64.70;102002.84;5036650;28;46065;-77
2021/10/10 10:38:12;;;;;;;;;38.50;34.25;;;;;15.15;64.72;102014.88;5037804;28;45556;-77
2021/10/10 10:40:40;;;;;;;;;40.00;34.50;;;;;15.20;64.42;102009.28;5037402;28;46418;-76
2021/10/10 10:43:07;;;;;;;;;41.00;33.75;;;;;15.22;64.81;102002.13;5036232;28;46526;-76
2021/10/10 10:45:38;;;;;;;;;36.25;32.50;;;;;15.26;64.67;102008.88;5036346;28;45594;-78
2021/10/10 10:48:07;;;;;;;;;34.00;31.75;;;;;15.31;64.51;102022.59;5035374;28;45558;-79
2021/10/10 10:54:32;;;;;;;;;37.25;31.75;;;;;15.37;64.14;102023.03;5036101;28;45894;-79
2021/10/10 10:56:57;;;;;;;;;33.50;30.75;;;;;15.40;63.72;102020.19;5036658;28;45827;-78
2021/10/10 10:59:58;;;;;;;;;28.75;26.75;;;;;15.46;63.67;102018.91;5036562;28;45534;-78
2021/10/10 11:02:47;;;;;;;;;30.50;26.25;;;;;15.51;63.68;102017.69;5036196;28;46440;-79
2021/10/10 11:05:47;;;;;;;;;34.50;29.50;;;;;15.55;63.75;102006.91;5036164;28;46454;-81
2021/10/10 11:08:16;;;;;;;;;34.50;30.50;;;;;15.61;63.53;102004.66;5035839;28;45881;-77
2021/10/10 11:11:07;;;;;;;;;39.75;31.25;;;;;15.65;63.31;102006.16;5035896;28;45854;-76
2021/10/10 11:13:35;;;;;;;;;31.75;29.75;;;;;15.70;63.15;101997.91;5034492;28;47899;-80
2021/10/10 11:16:07;;;;;;;;;28.75;26.75;;;;;15.75;63.13;102006.34;5036058;28;46021;-79
2021/10/10 11:21:55;;;;;;;;;31.00;27.25;;;;;15.78;62.96;101996.41;5036021;28;45673;-78
2021/10/10 11:24:21;;;;;;;;;28.50;26.00;;;;;15.85;62.45;102002.09;5036041;28;45708;-78
2021/10/10 11:26:49;;;;;;;;;29.75;28.25;;;;;15.91;62.28;101989.31;5035877;28;46211;-78
2021/10/10 11:29:19;;;;;;;;;30.50;29.00;;;;;16.02;62.46;101999.13;5035994;28;45589;-77
2021/10/10 11:31:47;;;;;;;;;32.00;27.50;;;;;16.06;62.35;101989.16;5034902;28;45896;-81
2021/10/10 11:37:36;;;;;;;;;26.25;26.00;;;;;16.14;61.82;101976.25;5035712;28;45686;-78
2021/10/10 11:40:08;;;;;;;;;26.25;23.25;;;;;16.25;61.41;101990.34;5035618;28;45734;-78
2021/10/10 11:42:37;;;;;;;;;27.50;25.00;;;;;16.29;61.08;101997.13;5035520;28;45681;-76
2021/10/10 11:45:03;;;;;;;;;27.25;25.50;;;;;16.30;60.90;101990.84;5035152;28;47579;-79
2021/10/10 11:47:30;;;;;;;;;25.25;23.25;;;;;16.38;60.97;101987.66;5035609;28;46401;-78
2021/10/10 11:53:17;;;;;;;;;29.25;26.75;;;;;16.47;60.78;101983.47;5035609;28;45700;-79
2021/10/10 11:55:45;;;;;;;;;31.50;28.25;;;;;16.47;61.12;101978.19;5035256;28;46314;-78
2021/10/10 11:58:12;;;;;;;;;27.50;26.25;;;;;16.41;60.65;101962.78;5035793;28;45980;-78
2021/10/10 12:00:38;;;;;;;;;29.75;25.75;;;;;16.55;61.03;101979.31;5035605;28;45410;-77
2021/10/10 12:03:10;;;;;;;;;28.50;26.25;;;;;16.52;60.63;101971.59;5035851;28;45969;-76
2021/10/10 12:09:12;;;;;;;;;29.75;27.00;;;;;16.67;60.47;101972.31;5035107;28;46132;-77
2021/10/10 12:11:38;;;;;;;;;29.25;25.25;;;;;16.74;60.55;101971.72;5036270;28;45468;-77
2021/10/10 12:14:04;;;;;;;;;30.50;29.00;;;;;16.79;60.05;101971.38;5035862;28;45789;-78
2021/10/10 12:16:49;;;;;;;;;24.25;24.00;;;;;16.85;60.51;101984.16;5035780;28;45504;-78
2021/10/10 12:19:14;;;;;;;;;28.75;25.50;;;;;16.85;60.33;101970.91;5036986;28;46131;-76
2021/10/10 12:21:40;;;;;;;;;30.50;27.25;;;;;16.93;60.42;101968.53;5036785;28;45507;-75
2021/10/10 12:24:07;;;;;;;;;27.00;26.00;;;;;16.96;60.13;101968.28;5036324;28;45769;-78
2021/10/10 12:26:45;;;;;;;;;31.50;28.50;;;;;17.03;60.24;101968.69;5035919;28;45620;-78
2021/10/10 12:29:28;;;;;;;;;27.00;23.25;;;;;17.09;60.17;101960.25;5035759;28;46078;-78
2021/10/10 12:31:55;;;;;;;;;30.50;23.00;;;;;17.10;59.86;101956.66;5034953;28;45799;-78
2021/10/10 12:34:29;;;;;;;;;25.25;24.25;;;;;17.18;59.92;101960.41;5036036;28;45555;-78
2021/10/10 12:36:55;;;;;;;;;25.75;23.75;;;;;17.24;59.15;101956.44;5035552;28;47294;-77
2021/10/10 12:39:38;;;;;;;;;29.25;27.75;;;;;17.26;58.87;101954.50;5034435;28;48232;-80
2021/10/10 12:42:04;;;;;;;;;27.50;26.50;;;;;17.30;59.29;101957.75;5034976;28;45705;-77
2021/10/10 12:44:30;;;;;;;;;28.25;25.50;;;;;17.34;59.51;101952.09;5034194;28;45959;-76
2021/10/10 12:46:57;;;;;;;;;30.25;27.50;;;;;17.38;59.42;101955.38;5034523;28;47314;-74